createdAt,value
2022-10-28T00:02:09.322Z,32.58
2022-10-28T00:04:42.228Z,24.08
2022-10-28T00:07:14.721Z,23.40
2022-10-28T00:09:47.552Z,27.77
2022-10-28T00:12:20.051Z,25.08
2022-10-28T00:14:52.902Z,26.63
2022-10-28T00:17:25.444Z,20.77
2022-10-28T00:19:58.227Z,26.65
2022-10-28T00:22:30.677Z,27.77
2022-10-28T00:25:04.289Z,26.52
2022-10-28T00:27:36.906Z,30.13
2022-10-28T00:30:10.104Z,26.75
2022-10-28T00:32:42.562Z,24.10
2022-10-28T00:35:15.526Z,27.45
2022-10-28T00:37:47.998Z,29.67
2022-10-28T00:40:20.759Z,22.83
2022-10-28T00:42:53.669Z,24.48
2022-10-28T00:45:26.877Z,25.60
2022-10-28T00:48:01.920Z,26.55
2022-10-28T00:51:00.849Z,26.50
2022-10-28T00:53:33.824Z,33.00
2022-10-28T00:56:08.960Z,25.35
2022-10-28T00:58:42.100Z,29.05
2022-10-28T01:01:15.009Z,29.30
2022-10-28T01:03:47.685Z,26.77
2022-10-28T01:06:21.907Z,23.45
2022-10-28T01:08:57.566Z,25.88
2022-10-28T01:11:41.902Z,21.25
2022-10-28T01:14:14.347Z,25.38
2022-10-28T01:16:49.961Z,32.60
2022-10-28T01:19:22.348Z,25.05
2022-10-28T01:22:13.294Z,22.75
2022-10-28T01:25:04.175Z,21.98
2022-10-28T01:27:36.917Z,25.80
2022-10-28T01:30:17.273Z,30.75
2022-10-28T01:33:08.432Z,20.10
2022-10-28T01:35:53.167Z,23.25
2022-10-28T01:38:39.396Z,32.85
2022-10-28T01:41:15.197Z,24.08
2022-10-28T01:43:54.093Z,24.60
2022-10-28T01:46:31.568Z,19.13
2022-10-28T01:49:09.117Z,21.65
2022-10-28T01:51:44.363Z,24.52
2022-10-28T01:54:19.527Z,18.98
2022-10-28T01:56:53.066Z,18.85
2022-10-28T01:59:28.196Z,17.42
2022-10-28T02:02:00.769Z,21.88
2022-10-28T02:04:34.051Z,20.38
2022-10-28T02:07:06.742Z,17.73
2022-10-28T02:09:39.750Z,20.80
2022-10-28T02:12:12.195Z,26.55
2022-10-28T02:15:23.560Z,15.18
2022-10-28T02:17:56.437Z,20.10
2022-10-28T02:20:55.884Z,14.70
2022-10-28T02:23:34.131Z,22.65
2022-10-28T02:26:24.347Z,31.38
2022-10-28T02:29:00.568Z,19.23
2022-10-28T02:31:41.156Z,18.95
2022-10-28T02:34:18.060Z,21.33
2022-10-28T02:36:52.778Z,20.80
2022-10-28T02:39:28.513Z,30.05
2022-10-28T02:42:03.088Z,18.38
2022-10-28T02:44:37.379Z,27.55
2022-10-28T02:47:13.729Z,23.15
2022-10-28T02:49:48.027Z,27.15
2022-10-28T02:52:22.340Z,16.58
2022-10-28T02:54:55.912Z,18.92
2022-10-28T02:57:32.769Z,19.50
2022-10-28T03:00:07.010Z,21.10
2022-10-28T03:02:40.677Z,20.88
2022-10-28T03:05:13.272Z,18.15
2022-10-28T03:07:46.164Z,19.88
2022-10-28T03:10:18.662Z,19.90
2022-10-28T03:12:51.534Z,17.40
2022-10-28T03:15:24.153Z,25.63
2022-10-28T03:17:57.169Z,19.30
2022-10-28T03:20:29.685Z,17.92
2022-10-28T03:23:02.812Z,20.88
2022-10-28T03:25:35.647Z,26.90
2022-10-28T03:28:08.650Z,23.20
2022-10-28T03:30:41.503Z,21.50
2022-10-28T03:33:14.474Z,24.52
2022-10-28T03:35:47.030Z,24.45
2022-10-28T03:38:20.246Z,22.05
2022-10-28T03:40:52.744Z,25.25
2022-10-28T03:43:25.562Z,20.55
2022-10-28T03:45:58.017Z,20.92
2022-10-28T03:48:30.852Z,23.77
2022-10-28T03:51:03.528Z,19.23
2022-10-28T03:53:36.358Z,20.20
2022-10-28T03:56:09.032Z,21.77
2022-10-28T03:58:41.988Z,26.20
2022-10-28T04:01:14.725Z,18.90
2022-10-28T04:03:47.679Z,23.05
2022-10-28T04:06:20.373Z,21.00
2022-10-28T04:08:53.495Z,15.55
2022-10-28T04:11:25.988Z,22.15
2022-10-28T04:13:58.821Z,18.50
2022-10-28T04:16:31.497Z,20.25
2022-10-28T04:19:04.336Z,13.93
2022-10-28T04:21:36.818Z,17.40
2022-10-28T04:24:10.009Z,14.90
2022-10-28T04:26:42.721Z,13.77
2022-10-28T04:29:15.767Z,23.88
2022-10-28T04:31:51.348Z,17.23
2022-10-28T04:34:25.174Z,20.88
2022-10-28T04:36:57.739Z,21.27
2022-10-28T04:39:30.511Z,20.05
2022-10-28T04:42:03.501Z,16.75
2022-10-28T04:44:36.305Z,19.77
2022-10-28T04:47:09.072Z,24.13
2022-10-28T04:49:41.876Z,15.95
2022-10-28T04:52:15.863Z,13.32
2022-10-28T04:54:48.954Z,21.48
2022-10-28T04:57:21.688Z,17.00
2022-10-28T04:59:54.628Z,18.55
2022-10-28T05:02:27.227Z,19.02
2022-10-28T05:05:03.859Z,18.08
2022-10-28T05:07:36.456Z,21.42
2022-10-28T05:10:09.563Z,18.80
2022-10-28T05:12:42.392Z,15.80
2022-10-28T05:15:15.606Z,16.58
2022-10-28T05:17:48.418Z,17.27
2022-10-28T05:20:21.385Z,18.85
2022-10-28T05:22:55.344Z,16.15
2022-10-28T05:25:28.546Z,14.63
2022-10-28T05:28:01.722Z,29.05
2022-10-28T05:30:34.673Z,17.75
2022-10-28T05:33:07.280Z,14.07
2022-10-28T05:35:40.572Z,11.52
2022-10-28T05:38:13.092Z,21.73
2022-10-28T05:40:45.840Z,17.20
2022-10-28T05:43:18.500Z,28.40
2022-10-28T05:45:57.704Z,16.98
2022-10-28T05:48:30.175Z,20.10
2022-10-28T05:51:03.049Z,18.27
2022-10-28T05:53:35.654Z,16.33
2022-10-28T05:56:09.132Z,13.52
2022-10-28T05:58:41.750Z,16.92
2022-10-28T06:01:14.726Z,19.25
2022-10-28T06:03:47.466Z,16.58
2022-10-28T06:06:20.468Z,33.70
2022-10-28T06:08:53.096Z,15.98
2022-10-28T06:11:24.446Z,13.25
2022-10-28T06:13:56.915Z,19.10
2022-10-28T06:16:29.868Z,13.63
2022-10-28T06:19:02.314Z,14.80
2022-10-28T06:21:35.152Z,13.13
2022-10-28T06:24:12.111Z,16.73
2022-10-28T06:26:45.200Z,14.68
2022-10-28T06:29:18.352Z,20.50
2022-10-28T06:31:51.293Z,12.68
2022-10-28T06:34:23.868Z,13.98
2022-10-28T06:36:56.832Z,14.90
2022-10-28T06:39:29.259Z,15.90
2022-10-28T06:42:02.569Z,18.67
2022-10-28T06:44:35.064Z,22.02
2022-10-28T06:47:09.590Z,16.90
2022-10-28T06:49:42.056Z,20.98
2022-10-28T06:52:14.895Z,23.90
2022-10-28T06:54:47.456Z,11.60
2022-10-28T06:57:20.341Z,14.57
2022-10-28T06:59:53.567Z,12.07
2022-10-28T07:02:29.829Z,16.30
2022-10-28T07:05:02.617Z,10.55
2022-10-28T07:07:40.349Z,15.40
2022-10-28T07:10:13.281Z,11.32
2022-10-28T07:12:46.006Z,11.15
2022-10-28T07:15:18.822Z,9.82
2022-10-28T07:17:55.264Z,12.98
2022-10-28T07:20:29.680Z,13.15
2022-10-28T07:23:02.790Z,12.23
2022-10-28T07:25:35.702Z,11.23
2022-10-28T07:28:08.385Z,9.38
2022-10-28T07:30:41.670Z,10.75
2022-10-28T07:33:14.483Z,11.32
2022-10-28T07:35:47.409Z,13.10
2022-10-28T07:38:19.933Z,8.80
2022-10-28T07:40:52.727Z,11.00
2022-10-28T07:43:25.267Z,13.18
2022-10-28T07:45:58.589Z,12.25
2022-10-28T07:48:31.054Z,10.98
2022-10-28T07:51:04.902Z,9.18
2022-10-28T07:53:38.056Z,15.27
2022-10-28T07:56:13.913Z,15.48
2022-10-28T07:58:46.457Z,11.48
2022-10-28T08:01:20.063Z,8.88
2022-10-28T08:03:52.747Z,10.88
2022-10-28T08:06:25.692Z,11.15
2022-10-28T08:08:58.186Z,11.63
2022-10-28T08:11:30.942Z,10.57
2022-10-28T08:14:03.723Z,8.10
2022-10-28T08:16:36.538Z,10.68
2022-10-28T08:19:10.972Z,9.48
2022-10-28T08:21:43.824Z,10.13
2022-10-28T08:24:16.398Z,10.07
2022-10-28T08:26:49.445Z,11.88
2022-10-28T08:29:24.206Z,7.10
2022-10-28T08:32:00.474Z,8.48
2022-10-28T08:34:33.083Z,12.30
2022-10-28T08:37:05.923Z,5.32
2022-10-28T08:39:38.488Z,7.70
2022-10-28T08:42:26.690Z,8.82
2022-10-28T08:45:05.983Z,7.22
2022-10-28T08:47:42.242Z,9.70
2022-10-28T08:50:15.932Z,7.65
2022-10-28T08:52:52.954Z,9.98
2022-10-28T08:55:36.934Z,7.13
2022-10-28T08:58:13.120Z,10.38
2022-10-28T09:00:47.197Z,8.88
2022-10-28T09:03:34.300Z,12.68
2022-10-28T09:06:10.608Z,11.35
2022-10-28T09:08:48.797Z,7.45
2022-10-28T09:11:48.419Z,9.25
2022-10-28T09:14:49.900Z,10.77
2022-10-28T09:17:48.314Z,10.50
2022-10-28T09:21:02.073Z,9.30
2022-10-28T09:23:37.735Z,8.60
2022-10-28T09:26:20.257Z,7.45
2022-10-28T09:29:15.466Z,10.98
2022-10-28T09:31:52.922Z,8.35
2022-10-28T09:34:25.768Z,11.15
2022-10-28T09:37:27.525Z,8.05
2022-10-28T09:40:22.876Z,17.60
2022-10-28T09:42:58.418Z,7.18
2022-10-28T09:45:32.233Z,6.55
2022-10-28T09:48:05.024Z,3.55
2022-10-28T09:50:54.449Z,2.85
2022-10-28T09:53:36.162Z,5.32
2022-10-28T09:56:12.829Z,5.00
2022-10-28T09:58:48.138Z,2.88
2022-10-28T10:01:20.618Z,5.63
2022-10-28T10:04:37.379Z,4.95
2022-10-28T10:07:13.380Z,5.40
2022-10-28T10:09:45.822Z,5.28
2022-10-28T10:12:18.692Z,5.43
2022-10-28T10:14:54.236Z,5.85
2022-10-28T10:17:39.940Z,11.57
2022-10-28T10:20:16.999Z,4.65
2022-10-28T10:23:21.503Z,5.20
2022-10-28T10:25:55.615Z,3.75
2022-10-28T10:28:28.777Z,2.83
2022-10-28T10:31:23.889Z,3.33
2022-10-28T10:34:37.530Z,5.93
2022-10-28T10:37:17.578Z,4.30
2022-10-28T10:40:02.020Z,3.45
2022-10-28T10:42:42.484Z,3.13
2022-10-28T10:45:25.812Z,8.15
2022-10-28T10:48:18.672Z,1.73
2022-10-28T10:51:07.657Z,2.95
2022-10-28T10:53:40.626Z,2.72
2022-10-28T10:56:16.019Z,2.70
2022-10-28T10:58:50.308Z,4.57
2022-10-28T11:01:24.748Z,4.28
2022-10-28T11:04:20.286Z,2.92
2022-10-28T11:06:57.110Z,4.60
2022-10-28T11:09:47.828Z,7.22
2022-10-28T11:12:28.481Z,2.80
2022-10-28T11:15:02.323Z,1.95
2022-10-28T11:17:35.523Z,3.05
2022-10-28T11:20:31.350Z,5.68
2022-10-28T11:23:10.890Z,1.42
2022-10-28T11:25:49.935Z,3.63
2022-10-28T11:28:38.213Z,1.55
2022-10-28T11:31:16.569Z,1.85
2022-10-28T11:33:58.905Z,2.83
2022-10-28T11:36:49.701Z,2.15
2022-10-28T11:39:37.052Z,3.40
2022-10-28T11:42:27.800Z,2.10
2022-10-28T11:45:00.616Z,1.50
2022-10-28T11:47:51.466Z,2.63
2022-10-28T11:50:24.383Z,3.95
2022-10-28T11:52:56.778Z,2.65
2022-10-28T11:55:34.486Z,2.28
2022-10-28T12:01:34.378Z,2.65
2022-10-28T12:04:25.972Z,5.13
2022-10-28T12:07:13.802Z,2.72
2022-10-28T12:09:49.663Z,3.92
2022-10-28T12:12:51.448Z,2.95
2022-10-28T12:15:27.784Z,2.88
2022-10-28T12:18:00.256Z,3.33
2022-10-28T12:20:40.987Z,1.70
2022-10-28T12:23:14.630Z,3.75
2022-10-28T12:25:49.878Z,3.78
2022-10-28T12:28:28.331Z,3.92
2022-10-28T12:31:02.041Z,3.15
2022-10-28T12:33:51.426Z,6.15
2022-10-28T12:36:35.404Z,4.70
2022-10-28T12:39:19.891Z,4.75
2022-10-28T12:41:52.795Z,3.30
2022-10-28T12:44:40.933Z,3.53
2022-10-28T12:47:13.899Z,3.95
2022-10-28T12:50:19.058Z,3.08
2022-10-28T12:53:16.232Z,3.28
2022-10-28T12:55:59.757Z,3.35
2022-10-28T12:58:35.886Z,6.68
2022-10-28T13:01:13.360Z,2.17
2022-10-28T13:03:46.377Z,1.92
2022-10-28T13:06:22.042Z,3.08
2022-10-28T13:09:18.253Z,4.75
2022-10-28T13:11:54.175Z,1.55
2022-10-28T13:14:32.821Z,2.25
2022-10-28T13:17:16.996Z,2.22
2022-10-28T13:19:57.003Z,1.95
2022-10-28T13:22:36.466Z,1.30
2022-10-28T13:25:34.603Z,2.70
2022-10-28T13:28:13.203Z,3.90
2022-10-28T13:31:05.224Z,3.15
2022-10-28T13:33:38.905Z,2.03
2022-10-28T13:36:11.726Z,2.75
2022-10-28T13:38:50.305Z,3.58
2022-10-28T13:41:27.511Z,4.63
2022-10-28T13:44:14.568Z,4.95
2022-10-28T13:47:00.451Z,2.95
2022-10-28T13:50:06.477Z,2.80
2022-10-28T13:55:24.272Z,3.42
2022-10-28T13:58:06.472Z,1.80
2022-10-28T14:00:39.068Z,3.33
2022-10-28T14:03:27.510Z,2.72
2022-10-28T14:06:01.319Z,2.90
2022-10-28T14:08:35.061Z,5.85
2022-10-28T14:11:23.502Z,3.58
2022-10-28T14:14:05.716Z,4.43
2022-10-28T14:16:39.342Z,3.22
2022-10-28T14:19:13.955Z,2.97
2022-10-28T14:21:51.589Z,2.65
2022-10-28T14:24:41.053Z,2.65
2022-10-28T14:27:40.205Z,5.95
2022-10-28T14:30:19.638Z,4.78
2022-10-28T14:32:58.394Z,4.20
2022-10-28T14:35:47.371Z,3.30
2022-10-28T14:38:22.951Z,2.55
2022-10-28T14:41:04.504Z,9.27
2022-10-28T14:43:43.239Z,2.85
2022-10-28T14:46:33.870Z,3.75
2022-10-28T14:49:14.923Z,3.40
2022-10-28T14:51:47.744Z,3.33
2022-10-28T14:54:43.645Z,4.32
2022-10-28T14:57:18.383Z,3.10
2022-10-28T14:59:51.852Z,4.07
2022-10-28T15:02:39.523Z,3.40
2022-10-28T15:05:12.513Z,3.95
2022-10-28T15:08:02.524Z,4.60
2022-10-28T15:10:38.244Z,7.53
2022-10-28T15:13:15.924Z,11.30
2022-10-28T15:15:52.749Z,4.45
2022-10-28T15:18:26.110Z,8.68
2022-10-28T15:21:16.124Z,4.85
2022-10-28T15:24:18.064Z,6.18
2022-10-28T15:26:53.947Z,3.15
2022-10-28T15:29:27.021Z,3.47
2022-10-28T15:32:14.553Z,4.35
2022-10-28T15:34:48.539Z,5.95
2022-10-28T15:37:23.376Z,5.32
2022-10-28T15:40:30.968Z,3.65
2022-10-28T15:43:07.679Z,5.93
2022-10-28T15:45:42.675Z,8.90
2022-10-28T15:48:22.592Z,6.50
2022-10-28T15:51:15.287Z,7.40
2022-10-28T15:54:12.340Z,8.43
2022-10-28T15:56:55.979Z,10.50
2022-10-28T15:59:28.515Z,6.70
2022-10-28T16:02:02.039Z,8.18
2022-10-28T16:04:49.474Z,8.52
2022-10-28T16:07:22.541Z,7.35
2022-10-28T16:09:55.125Z,8.20
2022-10-28T16:12:28.038Z,12.57
2022-10-28T16:15:01.961Z,7.78
2022-10-28T16:17:36.813Z,9.45
2022-10-28T16:20:27.866Z,9.38
2022-10-28T16:23:00.843Z,8.00
2022-10-28T16:25:48.371Z,8.13
2022-10-28T16:28:24.253Z,7.40
2022-10-28T16:30:57.866Z,6.97
2022-10-28T16:33:32.773Z,5.47
2022-10-28T16:36:05.687Z,4.47
2022-10-28T16:38:39.124Z,4.85
2022-10-28T16:41:14.940Z,7.22
2022-10-28T16:44:02.358Z,7.07
2022-10-28T16:49:07.866Z,7.90
2022-10-28T16:51:41.573Z,9.02
2022-10-28T16:54:15.441Z,7.28
2022-10-28T16:56:50.519Z,9.70
2022-10-28T16:59:38.386Z,16.02
2022-10-28T17:02:32.022Z,12.27
2022-10-28T17:05:07.934Z,18.23
2022-10-28T17:07:40.682Z,13.43
2022-10-28T17:10:13.373Z,9.00
2022-10-28T17:12:46.337Z,11.80
2022-10-28T17:15:33.658Z,12.32
2022-10-28T17:18:06.475Z,9.57
2022-10-28T17:20:39.155Z,10.48
2022-10-28T17:23:11.977Z,16.27
2022-10-28T17:25:45.207Z,13.75
2022-10-28T17:28:18.147Z,14.63
2022-10-28T17:30:50.630Z,19.05
2022-10-28T17:33:23.894Z,18.60
2022-10-28T17:36:12.446Z,15.20
2022-10-28T17:38:46.275Z,20.17
2022-10-28T17:41:19.647Z,18.42
2022-10-28T17:43:53.822Z,11.82
2022-10-28T17:46:26.928Z,10.75
2022-10-28T17:48:59.707Z,15.23
2022-10-28T17:51:47.132Z,18.55
2022-10-28T17:54:19.945Z,11.68
2022-10-28T17:57:07.456Z,12.98
2022-10-28T17:59:40.558Z,15.40
2022-10-28T18:02:28.112Z,16.40
2022-10-28T18:05:01.020Z,15.00
2022-10-28T18:07:33.591Z,10.98
2022-10-28T18:10:21.062Z,12.88
2022-10-28T18:12:54.239Z,13.60
2022-10-28T18:15:27.078Z,13.30
2022-10-28T18:17:59.874Z,20.98
2022-10-28T18:20:32.407Z,23.10
2022-10-28T18:23:05.218Z,11.57
2022-10-28T18:26:07.695Z,11.38
2022-10-28T18:28:41.135Z,15.25
2022-10-28T18:31:28.503Z,15.27
2022-10-28T18:34:02.041Z,18.50
2022-10-28T18:36:49.795Z,14.45
2022-10-28T18:39:22.621Z,12.88
2022-10-28T18:41:55.313Z,12.88
2022-10-28T18:44:32.132Z,17.77
2022-10-28T18:47:20.049Z,28.98
2022-10-28T18:49:53.373Z,22.38
2022-10-28T18:52:25.975Z,21.50
2022-10-28T18:55:13.354Z,16.08
2022-10-28T18:58:00.884Z,22.25
2022-10-28T19:00:36.054Z,22.75
2022-10-28T19:03:23.686Z,18.38
2022-10-28T19:06:12.609Z,19.45
2022-10-28T19:08:45.642Z,21.33
2022-10-28T19:11:33.551Z,21.77
2022-10-28T19:14:07.147Z,17.55
2022-10-28T19:16:41.680Z,18.45
2022-10-28T19:19:14.453Z,15.27
2022-10-28T19:21:46.999Z,11.75
2022-10-28T19:24:19.791Z,12.73
2022-10-28T19:26:52.317Z,24.50
2022-10-28T19:29:25.268Z,22.00
2022-10-28T19:31:57.958Z,13.77
2022-10-28T19:34:32.860Z,25.60
2022-10-28T19:37:05.495Z,34.55
2022-10-28T19:39:38.394Z,19.83
2022-10-28T19:42:11.326Z,20.27
2022-10-28T19:44:44.374Z,18.38
2022-10-28T19:47:16.922Z,17.70
2022-10-28T19:50:04.258Z,14.93
2022-10-28T19:52:37.311Z,10.82
2022-10-28T19:55:14.643Z,12.35
2022-10-28T19:57:50.380Z,11.93
2022-10-28T20:00:25.431Z,10.23
2022-10-28T20:02:58.853Z,10.48
2022-10-28T20:05:31.469Z,9.00
2022-10-28T20:08:04.864Z,14.35
2022-10-28T20:10:37.303Z,8.85
2022-10-28T20:13:10.547Z,15.95
2022-10-28T20:15:43.155Z,13.07
2022-10-28T20:18:31.640Z,11.63
2022-10-28T20:21:05.599Z,11.75
2022-10-28T20:23:38.907Z,10.38
2022-10-28T20:26:12.749Z,11.93
2022-10-28T20:28:45.315Z,14.55
2022-10-28T20:31:19.455Z,11.93
2022-10-28T20:33:53.415Z,8.73
2022-10-28T20:36:27.822Z,9.98
2022-10-28T20:39:11.957Z,12.05
2022-10-28T20:41:45.615Z,12.10
2022-10-28T20:44:18.533Z,9.55
2022-10-28T20:47:05.930Z,7.80
2022-10-28T20:49:40.372Z,10.85
2022-10-28T20:52:16.859Z,10.18
2022-10-28T20:54:50.015Z,10.00
2022-10-28T20:57:22.636Z,9.35
2022-10-28T21:00:10.594Z,10.10
2022-10-28T21:02:43.709Z,10.07
2022-10-28T21:05:16.384Z,13.45
2022-10-28T21:07:49.321Z,13.45
2022-10-28T21:10:36.726Z,8.90
2022-10-28T21:13:09.597Z,12.85
2022-10-28T21:15:44.292Z,13.02
2022-10-28T21:18:17.136Z,12.80
2022-10-28T21:20:49.667Z,9.90
